createdAt,value
2023-01-13T00:01:08.222Z,98271.91
2023-01-13T00:03:38.891Z,98250.25
2023-01-13T00:06:08.330Z,98256.78
2023-01-13T00:08:36.832Z,98259.28
2023-01-13T00:11:05.210Z,98255.06
2023-01-13T00:13:35.319Z,98260.53
2023-01-13T00:16:06.074Z,98271.91
2023-01-13T00:18:36.829Z,98242.47
2023-01-13T00:21:08.626Z,98245.75
2023-01-13T00:23:37.055Z,98251.00
2023-01-13T00:26:07.933Z,98249.47
2023-01-13T00:28:37.158Z,98253.03
2023-01-13T00:31:07.044Z,98259.72
2023-01-13T00:33:36.109Z,98251.56
2023-01-13T00:36:08.004Z,98250.63
2023-01-13T00:38:37.764Z,98250.88
2023-01-13T00:41:08.096Z,98262.31
2023-01-13T00:43:37.139Z,98255.53
2023-01-13T00:46:06.882Z,98265.66
2023-01-13T00:48:35.793Z,98277.50
2023-01-13T00:51:08.588Z,98269.97
2023-01-13T00:53:38.905Z,98273.88
2023-01-13T00:56:09.929Z,98268.63
2023-01-13T00:58:38.446Z,98266.00
2023-01-13T01:01:08.998Z,98268.63
2023-01-13T01:03:37.908Z,98264.59
2023-01-13T01:06:09.241Z,98277.91
2023-01-13T01:08:37.591Z,98278.63
2023-01-13T01:11:08.805Z,98275.88
2023-01-13T01:13:37.761Z,98280.56
2023-01-13T01:16:07.973Z,98296.09
2023-01-13T01:18:38.222Z,98283.19
2023-01-13T01:21:08.930Z,98266.91
2023-01-13T01:23:38.460Z,98245.03
2023-01-13T01:26:09.607Z,98258.34
2023-01-13T01:28:37.993Z,98264.41
2023-01-13T01:31:10.655Z,98232.72
2023-01-13T01:33:40.975Z,98222.28
2023-01-13T01:36:12.238Z,98237.50
2023-01-13T01:38:40.677Z,98247.06
2023-01-13T01:41:09.179Z,98260.75
2023-01-13T01:43:59.684Z,98247.47
2023-01-13T01:46:29.287Z,98258.84
2023-01-13T01:49:03.364Z,98261.41
2023-01-13T01:51:37.915Z,98260.75
2023-01-13T01:54:10.303Z,98255.81
2023-01-13T01:56:42.516Z,98265.34
2023-01-13T01:59:11.349Z,98270.78
2023-01-13T02:01:41.501Z,98276.69
2023-01-13T02:04:16.336Z,98259.84
2023-01-13T02:06:48.111Z,98269.41
2023-01-13T02:09:17.865Z,98272.31
2023-01-13T02:12:03.736Z,98270.34
2023-01-13T02:14:35.342Z,98278.22
2023-01-13T02:17:24.158Z,98281.97
2023-01-13T02:20:31.288Z,98269.97
2023-01-13T02:26:14.166Z,98264.69
2023-01-13T02:29:22.169Z,98258.09
2023-01-13T02:31:56.540Z,98266.19
2023-01-13T02:34:33.797Z,98266.19
2023-01-13T02:37:08.261Z,98265.38
2023-01-13T02:39:44.551Z,98274.84
2023-01-13T02:42:37.615Z,98260.03
2023-01-13T02:45:12.548Z,98253.94
2023-01-13T02:47:45.997Z,98239.72
2023-01-13T02:50:18.329Z,98233.53
2023-01-13T02:52:51.712Z,98242.25
2023-01-13T02:55:27.022Z,98234.06
2023-01-13T02:57:59.349Z,98247.44
2023-01-13T03:00:29.096Z,98251.16
2023-01-13T03:02:59.225Z,98244.44
2023-01-13T03:05:28.684Z,98241.47
2023-01-13T03:08:08.807Z,98244.13
2023-01-13T03:10:56.584Z,98243.25
2023-01-13T03:14:09.706Z,98249.28
2023-01-13T03:16:49.735Z,98256.94
2023-01-13T03:19:31.374Z,98255.16
2023-01-13T03:22:09.176Z,98240.91
2023-01-13T03:24:41.256Z,98244.34
2023-01-13T03:27:16.149Z,98245.22
2023-01-13T03:29:50.764Z,98235.47
2023-01-13T03:32:24.241Z,98231.22
2023-01-13T03:34:57.973Z,98237.16
2023-01-13T03:37:31.670Z,98230.25
2023-01-13T03:40:03.083Z,98234.94
2023-01-13T03:42:35.062Z,98237.00
2023-01-13T03:45:07.831Z,98240.81
2023-01-13T03:47:42.214Z,98243.00
2023-01-13T03:50:16.260Z,98245.78
2023-01-13T03:52:48.480Z,98242.41
2023-01-13T03:55:19.327Z,98252.66
2023-01-13T03:57:51.997Z,98251.00
2023-01-13T04:00:23.891Z,98242.41
2023-01-13T04:02:57.009Z,98241.13
2023-01-13T04:05:28.340Z,98243.16
2023-01-13T04:08:04.539Z,98247.78
2023-01-13T04:10:39.558Z,98246.63
2023-01-13T04:13:12.569Z,98248.31
2023-01-13T04:15:44.098Z,98259.75
2023-01-13T04:18:17.860Z,98262.13
2023-01-13T04:20:49.980Z,98265.66
2023-01-13T04:23:19.409Z,98262.91
2023-01-13T04:25:48.612Z,98262.09
2023-01-13T04:28:18.418Z,98249.00
2023-01-13T04:30:47.855Z,98245.38
2023-01-13T04:33:18.279Z,98236.59
2023-01-13T04:35:49.105Z,98240.88
2023-01-13T04:38:19.177Z,98239.06
2023-01-13T04:40:48.322Z,98246.03
2023-01-13T04:43:17.445Z,98240.66
2023-01-13T04:45:46.014Z,98230.91
2023-01-13T04:48:14.595Z,98236.84
2023-01-13T04:50:43.112Z,98241.16
2023-01-13T04:53:12.966Z,98242.91
2023-01-13T04:55:41.622Z,98254.19
2023-01-13T04:58:11.544Z,98252.22
2023-01-13T05:00:40.408Z,98255.41
2023-01-13T05:03:09.236Z,98254.44
2023-01-13T05:05:38.013Z,98248.09
2023-01-13T05:08:06.983Z,98248.09
2023-01-13T05:10:37.014Z,98243.69
2023-01-13T05:13:23.066Z,98248.22
2023-01-13T05:16:17.551Z,98244.47
2023-01-13T05:18:46.252Z,98236.47
2023-01-13T05:21:28.650Z,98237.34
2023-01-13T05:24:14.621Z,98238.06
2023-01-13T05:26:44.785Z,98218.78
2023-01-13T05:29:13.254Z,98242.34
2023-01-13T05:31:41.913Z,98228.34
2023-01-13T05:34:10.633Z,98241.44
2023-01-13T05:36:39.472Z,98249.28
2023-01-13T05:39:08.026Z,98237.28
2023-01-13T05:41:53.998Z,98250.44
2023-01-13T05:44:24.905Z,98258.19
2023-01-13T05:46:53.475Z,98269.44
2023-01-13T05:49:22.035Z,98273.66
2023-01-13T05:51:50.457Z,98293.00
2023-01-13T05:54:18.828Z,98282.38
2023-01-13T05:56:47.333Z,98278.13
2023-01-13T05:59:15.756Z,98280.59
2023-01-13T06:01:45.572Z,98276.16
2023-01-13T06:04:14.319Z,98277.13
2023-01-13T06:06:43.399Z,98269.28
2023-01-13T06:09:11.827Z,98272.84
2023-01-13T06:11:40.248Z,98273.63
2023-01-13T06:14:08.667Z,98269.38
2023-01-13T06:16:37.042Z,98270.03
2023-01-13T06:19:08.942Z,98278.78
2023-01-13T06:21:37.639Z,98268.94
2023-01-13T06:24:07.079Z,98293.47
2023-01-13T06:26:39.716Z,98302.19
2023-01-13T06:29:10.074Z,98308.53
2023-01-13T06:31:40.200Z,98300.13
2023-01-13T06:34:15.116Z,98309.22
2023-01-13T06:36:46.861Z,98289.44
2023-01-13T06:39:18.858Z,98293.09
2023-01-13T06:42:07.866Z,98307.91
2023-01-13T06:44:36.252Z,98300.81
2023-01-13T06:47:04.815Z,98311.38
2023-01-13T06:49:34.653Z,98318.41
2023-01-13T06:52:03.164Z,98321.03
2023-01-13T06:54:31.519Z,98341.91
2023-01-13T06:57:00.046Z,98336.56
2023-01-13T06:59:29.184Z,98331.50
2023-01-13T07:01:57.882Z,98339.69
2023-01-13T07:04:26.792Z,98340.13
2023-01-13T07:06:56.931Z,98344.94
2023-01-13T07:09:25.364Z,98334.66
2023-01-13T07:11:53.720Z,98337.69
2023-01-13T07:14:39.750Z,98332.78
2023-01-13T07:17:08.145Z,98345.31
2023-01-13T07:19:36.536Z,98339.34
2023-01-13T07:22:06.337Z,98336.97
2023-01-13T07:24:34.667Z,98349.09
2023-01-13T07:27:02.999Z,98342.19
2023-01-13T07:29:31.466Z,98350.09
2023-01-13T07:31:59.899Z,98344.72
2023-01-13T07:34:28.208Z,98335.88
2023-01-13T07:36:56.599Z,98336.03
2023-01-13T07:39:26.359Z,98348.97
2023-01-13T07:42:12.346Z,98340.34
2023-01-13T07:44:41.268Z,98334.19
2023-01-13T07:47:11.099Z,98343.78
2023-01-13T07:49:39.509Z,98337.50
2023-01-13T07:52:07.848Z,98343.41
2023-01-13T07:54:41.070Z,98354.41
2023-01-13T07:57:10.050Z,98345.47
2023-01-13T07:59:38.535Z,98355.88
2023-01-13T08:02:07.473Z,98354.53
2023-01-13T08:04:36.125Z,98366.44
2023-01-13T08:07:05.731Z,98355.69
2023-01-13T08:09:34.066Z,98362.72
2023-01-13T08:12:21.371Z,98386.78
2023-01-13T08:14:51.651Z,98376.97
2023-01-13T08:17:20.686Z,98383.06
2023-01-13T08:19:49.176Z,98389.94
2023-01-13T08:22:17.512Z,98400.84
2023-01-13T08:24:45.891Z,98410.38
2023-01-13T08:27:15.631Z,98404.91
2023-01-13T08:29:44.026Z,98425.66
2023-01-13T08:32:12.408Z,98418.63
2023-01-13T08:34:40.931Z,98423.09
2023-01-13T08:37:09.522Z,98430.09
2023-01-13T08:39:37.915Z,98427.56
2023-01-13T08:42:06.416Z,98442.00
2023-01-13T08:44:36.459Z,98420.31
2023-01-13T08:47:05.245Z,98436.00
2023-01-13T08:49:33.636Z,98429.69
2023-01-13T08:52:02.030Z,98419.34
2023-01-13T08:54:30.590Z,98453.44
2023-01-13T08:56:59.074Z,98432.19
2023-01-13T08:59:27.432Z,98426.56
2023-01-13T09:01:57.540Z,98434.84
2023-01-13T09:04:28.610Z,98419.63
2023-01-13T09:06:57.482Z,98437.47
2023-01-13T09:09:27.615Z,98424.00
2023-01-13T09:12:12.796Z,98431.94
2023-01-13T09:14:41.309Z,98431.44
2023-01-13T09:17:11.155Z,98434.75
2023-01-13T09:19:39.641Z,98450.09
2023-01-13T09:22:11.096Z,98447.63
2023-01-13T09:24:39.501Z,98459.78
2023-01-13T09:27:08.001Z,98444.97
2023-01-13T09:29:36.353Z,98458.16
2023-01-13T09:32:05.043Z,98450.22
2023-01-13T09:34:52.421Z,98450.88
2023-01-13T09:37:20.781Z,98434.69
2023-01-13T09:39:49.241Z,98443.56
2023-01-13T09:42:42.747Z,98458.59
2023-01-13T09:45:16.791Z,98433.50
2023-01-13T09:47:51.173Z,98445.88
2023-01-13T09:50:30.633Z,98459.22
2023-01-13T09:53:00.586Z,98459.84
2023-01-13T09:55:34.642Z,98461.97
2023-01-13T09:58:08.842Z,98476.75
2023-01-13T10:00:44.389Z,98461.41
2023-01-13T10:03:22.180Z,98451.72
2023-01-13T10:05:58.455Z,98438.84
2023-01-13T10:08:30.384Z,98437.78
2023-01-13T10:11:21.353Z,98453.84
2023-01-13T10:13:52.210Z,98444.09
2023-01-13T10:16:29.219Z,98435.25
2023-01-13T10:19:06.440Z,98458.66
2023-01-13T10:22:19.618Z,98457.03
2023-01-13T10:25:18.236Z,98452.75
2023-01-13T10:27:49.944Z,98455.72
2023-01-13T10:30:21.635Z,98438.91
2023-01-13T10:32:55.121Z,98447.00
2023-01-13T10:35:56.548Z,98445.25
2023-01-13T10:38:29.539Z,98470.47
2023-01-13T10:40:59.832Z,98457.16
2023-01-13T10:43:29.707Z,98456.31
2023-01-13T10:46:01.631Z,98466.09
2023-01-13T10:48:35.217Z,98451.00
2023-01-13T10:51:28.804Z,98460.16
2023-01-13T10:54:03.615Z,98474.44
2023-01-13T10:56:33.877Z,98486.81
2023-01-13T10:59:18.461Z,98489.72
2023-01-13T11:02:02.421Z,98469.31
2023-01-13T11:04:35.928Z,98482.59
2023-01-13T11:07:07.543Z,98480.97
2023-01-13T11:09:37.228Z,98498.75
2023-01-13T11:12:05.873Z,98488.97
2023-01-13T11:14:39.706Z,98503.75
2023-01-13T11:17:23.039Z,98484.25
2023-01-13T11:19:56.621Z,98497.25
2023-01-13T11:22:29.342Z,98507.56
2023-01-13T11:25:02.550Z,98513.69
2023-01-13T11:27:41.555Z,98498.56
2023-01-13T11:30:22.953Z,98511.22
2023-01-13T11:33:04.673Z,98492.31
2023-01-13T11:35:36.935Z,98489.09
2023-01-13T11:38:14.430Z,98503.31
2023-01-13T11:40:49.637Z,98510.22
2023-01-13T11:43:27.450Z,98497.75
2023-01-13T11:45:58.584Z,98504.00
2023-01-13T11:48:30.400Z,98497.38
2023-01-13T11:51:04.373Z,98511.25
2023-01-13T11:53:48.840Z,98502.16
2023-01-13T11:56:33.791Z,98488.00
2023-01-13T11:59:15.795Z,98488.75
2023-01-13T12:01:56.584Z,98513.94
2023-01-13T12:04:29.455Z,98512.41
2023-01-13T12:07:12.729Z,98505.25
2023-01-13T12:09:53.441Z,98513.19
2023-01-13T12:12:34.674Z,98499.34
2023-01-13T12:15:29.063Z,98504.66
2023-01-13T12:18:12.257Z,98513.13
2023-01-13T12:20:48.698Z,98515.56
2023-01-13T12:23:27.922Z,98529.72
2023-01-13T12:26:01.139Z,98503.31
2023-01-13T12:28:44.576Z,98504.84
2023-01-13T12:31:14.524Z,98511.81
2023-01-13T12:33:56.880Z,98519.72
2023-01-13T12:36:33.528Z,98527.91
2023-01-13T12:39:10.803Z,98538.69
2023-01-13T12:41:59.828Z,98539.81
2023-01-13T12:44:29.636Z,98548.84
2023-01-13T12:46:59.652Z,98547.28
2023-01-13T12:49:31.017Z,98541.34
2023-01-13T12:52:16.146Z,98537.94
2023-01-13T12:55:10.856Z,98547.69
2023-01-13T12:57:40.155Z,98547.78
2023-01-13T13:00:17.555Z,98562.00
2023-01-13T13:03:24.268Z,98566.75
2023-01-13T13:05:59.310Z,98544.34
2023-01-13T13:08:46.191Z,98559.19
2023-01-13T13:11:52.676Z,98560.13
2023-01-13T13:15:01.215Z,98566.25
2023-01-13T13:17:44.345Z,98581.31
2023-01-13T13:20:53.830Z,98578.06
2023-01-13T13:23:36.072Z,98586.13
2023-01-13T13:26:16.205Z,98591.81
2023-01-13T13:28:54.751Z,98599.88
2023-01-13T13:31:37.279Z,98592.72
2023-01-13T13:34:21.734Z,98607.34
2023-01-13T13:37:12.226Z,98618.63
2023-01-13T13:40:00.791Z,98622.94
2023-01-13T13:43:00.478Z,98636.09
2023-01-13T13:45:46.635Z,98627.56
2023-01-13T13:48:26.731Z,98653.22
2023-01-13T13:51:01.762Z,98658.47
2023-01-13T13:53:33.953Z,98660.44
2023-01-13T13:56:04.840Z,98666.50
2023-01-13T13:58:36.979Z,98659.41
2023-01-13T14:01:06.340Z,98670.66
2023-01-13T14:03:39.894Z,98668.97
2023-01-13T14:06:23.575Z,98672.38
2023-01-13T14:08:52.080Z,98672.41
2023-01-13T14:11:27.961Z,98675.84
2023-01-13T14:14:04.678Z,98680.06
2023-01-13T14:16:35.018Z,98685.31
2023-01-13T14:19:05.087Z,98693.94
2023-01-13T14:21:34.827Z,98699.16
2023-01-13T14:24:13.631Z,98687.75
2023-01-13T14:26:42.449Z,98695.53
2023-01-13T14:29:17.861Z,98694.50
2023-01-13T14:31:46.433Z,98698.75
2023-01-13T14:34:32.332Z,98695.19
2023-01-13T14:37:03.781Z,98695.97
2023-01-13T14:39:38.876Z,98687.88
2023-01-13T14:42:14.102Z,98698.41
2023-01-13T14:44:49.625Z,98706.44
2023-01-13T14:47:27.642Z,98718.66
2023-01-13T14:50:03.336Z,98711.06
2023-01-13T14:52:36.574Z,98711.88
2023-01-13T14:55:30.313Z,98717.03
2023-01-13T14:58:28.330Z,98723.94
2023-01-13T15:01:32.361Z,98727.53
2023-01-13T15:04:17.295Z,98721.94
2023-01-13T15:06:48.248Z,98736.03
2023-01-13T15:09:29.793Z,98746.88
2023-01-13T15:11:58.817Z,98745.00
2023-01-13T15:14:35.969Z,98751.97
2023-01-13T15:17:04.494Z,98746.81
2023-01-13T15:19:36.426Z,98765.34
2023-01-13T15:22:05.526Z,98775.97
2023-01-13T15:24:35.273Z,98790.00
2023-01-13T15:27:12.078Z,98797.97
2023-01-13T15:29:51.666Z,98802.50
2023-01-13T15:32:23.658Z,98806.34
2023-01-13T15:34:53.016Z,98820.31
2023-01-13T15:37:21.405Z,98811.09
2023-01-13T15:39:51.232Z,98797.81
2023-01-13T15:42:37.161Z,98814.72
2023-01-13T15:45:24.032Z,98820.63
2023-01-13T15:47:53.185Z,98817.09
2023-01-13T15:50:23.028Z,98818.84
2023-01-13T15:52:51.522Z,98825.69
2023-01-13T15:55:21.219Z,98837.81
2023-01-13T15:57:51.169Z,98834.34
2023-01-13T16:00:22.203Z,98836.00
2023-01-13T16:02:50.878Z,98827.13
2023-01-13T16:05:19.308Z,98828.78
2023-01-13T16:07:49.453Z,98834.84
2023-01-13T16:10:20.136Z,98830.25
2023-01-13T16:12:50.010Z,98846.91
2023-01-13T16:15:22.212Z,98838.78
2023-01-13T16:17:57.181Z,98841.19
2023-01-13T16:20:25.844Z,98846.53
2023-01-13T16:22:54.246Z,98851.69
2023-01-13T16:25:24.547Z,98864.84
2023-01-13T16:27:55.336Z,98860.38
2023-01-13T16:30:27.272Z,98863.81
2023-01-13T16:32:56.007Z,98874.22
2023-01-13T16:35:25.327Z,98882.16
2023-01-13T16:37:53.904Z,98877.75
2023-01-13T16:40:31.117Z,98904.78
2023-01-13T16:43:03.391Z,98903.88
2023-01-13T16:45:32.976Z,98910.06
2023-01-13T16:48:01.404Z,98908.41
2023-01-13T16:50:35.949Z,98908.47
2023-01-13T16:53:05.223Z,98929.38
2023-01-13T16:55:33.931Z,98921.66
2023-01-13T16:58:04.315Z,98925.97
2023-01-13T17:00:34.425Z,98925.06
2023-01-13T17:03:03.330Z,98937.22
2023-01-13T17:05:31.736Z,98929.28
2023-01-13T17:08:00.271Z,98937.22
2023-01-13T17:10:28.810Z,98931.88
2023-01-13T17:13:00.068Z,98932.84
2023-01-13T17:15:34.083Z,98941.44
2023-01-13T17:18:03.150Z,98939.63
2023-01-13T17:20:31.694Z,98951.78
2023-01-13T17:23:00.342Z,98958.66
2023-01-13T17:25:28.725Z,98963.59
2023-01-13T17:27:57.737Z,98972.56
2023-01-13T17:30:26.244Z,98979.63
2023-01-13T17:32:56.314Z,98987.44
2023-01-13T17:35:25.417Z,98980.47
2023-01-13T17:37:55.179Z,98982.25
2023-01-13T17:40:24.128Z,98989.09
2023-01-13T17:42:52.773Z,98974.22
2023-01-13T17:45:21.185Z,98989.19
2023-01-13T17:47:49.670Z,98984.69
2023-01-13T17:50:19.656Z,98982.91
2023-01-13T17:52:48.047Z,98981.31
2023-01-13T17:55:16.768Z,98988.28
2023-01-13T17:57:45.145Z,98996.13
2023-01-13T18:00:14.423Z,98989.28
2023-01-13T18:02:42.970Z,99007.53
2023-01-13T18:05:12.489Z,99004.81
2023-01-13T18:07:42.268Z,99017.75
2023-01-13T18:10:12.284Z,99027.38
2023-01-13T18:12:41.165Z,99028.28
2023-01-13T18:15:10.197Z,99026.59
2023-01-13T18:17:38.592Z,99030.84
2023-01-13T18:20:24.829Z,99040.53
2023-01-13T18:23:12.359Z,99044.09
2023-01-13T18:25:58.841Z,99039.75
2023-01-13T18:28:27.302Z,99045.47
2023-01-13T18:30:55.639Z,99038.63
2023-01-13T18:33:24.534Z,99049.03
2023-01-13T18:35:52.953Z,99053.44
2023-01-13T18:38:22.983Z,99045.56
2023-01-13T18:40:51.959Z,99057.72
2023-01-13T18:43:19.438Z,99041.16
2023-01-13T18:45:51.590Z,99043.69
2023-01-13T18:48:19.990Z,99060.38
2023-01-13T18:50:48.383Z,99052.50
2023-01-13T18:53:16.780Z,99063.88
2023-01-13T18:55:46.477Z,99066.47
2023-01-13T18:58:14.961Z,99069.06
2023-01-13T19:00:43.415Z,99080.50
2023-01-13T19:03:12.759Z,99075.19
2023-01-13T19:05:41.266Z,99080.50
2023-01-13T19:08:09.863Z,99077.06
2023-01-13T19:10:40.383Z,99079.09
2023-01-13T19:13:10.102Z,99067.41
2023-01-13T19:15:38.478Z,99064.09
2023-01-13T19:18:06.885Z,99069.34
2023-01-13T19:20:35.264Z,99064.00
2023-01-13T19:23:03.648Z,99065.75
2023-01-13T19:25:32.100Z,99065.97
2023-01-13T19:28:00.546Z,99079.13
2023-01-13T19:30:30.394Z,99086.13
2023-01-13T19:32:58.875Z,99091.47
2023-01-13T19:35:27.263Z,99089.75
2023-01-13T19:37:56.257Z,99107.00
2023-01-13T19:40:24.684Z,99103.63
2023-01-13T19:43:10.781Z,99109.63
2023-01-13T19:45:40.536Z,99106.88
2023-01-13T19:48:08.905Z,99111.25
2023-01-13T19:50:39.546Z,99122.66
2023-01-13T19:53:08.902Z,99122.50
2023-01-13T19:55:37.343Z,99128.75
2023-01-13T19:58:08.006Z,99125.97
2023-01-13T20:00:36.555Z,99138.25
2023-01-13T20:03:10.601Z,99130.34
2023-01-13T20:05:39.007Z,99140.84
2023-01-13T20:08:07.493Z,99134.75
2023-01-13T20:10:36.816Z,99139.00
2023-01-13T20:13:06.538Z,99134.56
2023-01-13T20:15:35.095Z,99138.06
2023-01-13T20:18:03.512Z,99133.66
2023-01-13T20:20:33.398Z,99146.78
2023-01-13T20:23:01.997Z,99138.06
2023-01-13T20:25:30.533Z,99139.81
2023-01-13T20:28:01.652Z,99137.97
2023-01-13T20:30:30.044Z,99139.81
2023-01-13T20:32:58.440Z,99145.84
2023-01-13T20:35:29.559Z,99151.09
2023-01-13T20:37:59.656Z,99152.03
2023-01-13T20:40:28.063Z,99155.50
2023-01-13T20:42:56.463Z,99163.47
2023-01-13T20:45:25.985Z,99154.75
2023-01-13T20:47:55.205Z,99175.75
2023-01-13T20:50:23.628Z,99174.75
2023-01-13T20:52:52.547Z,99188.78
2023-01-13T20:55:22.329Z,99190.44
2023-01-13T20:57:50.795Z,99192.22
2023-01-13T21:00:20.254Z,99186.91
2023-01-13T21:02:48.580Z,99192.16
2023-01-13T21:05:17.012Z,99190.56
2023-01-13T21:07:45.485Z,99183.44
2023-01-13T21:10:13.888Z,99182.56
2023-01-13T21:13:00.924Z,99202.63
2023-01-13T21:15:29.427Z,99194.78
2023-01-13T21:18:15.510Z,99200.03
2023-01-13T21:20:43.706Z,99186.13
2023-01-13T21:23:12.083Z,99184.34
2023-01-13T21:25:41.065Z,99196.63
2023-01-13T21:28:13.345Z,99202.78
2023-01-13T21:30:41.674Z,99201.97
2023-01-13T21:33:14.200Z,99206.38
2023-01-13T21:35:42.629Z,99214.25
2023-01-13T21:38:12.388Z,99218.63
2023-01-13T21:40:40.824Z,99220.41
2023-01-13T21:43:31.021Z,99212.44
2023-01-13T21:46:31.336Z,99215.06
2023-01-13T21:48:59.779Z,99221.41
2023-01-13T21:51:28.467Z,99216.19
2023-01-13T21:53:57.162Z,99216.09
2023-01-13T21:56:25.660Z,99226.66
2023-01-13T21:58:57.002Z,99225.66
2023-01-13T22:01:26.235Z,99232.72
2023-01-13T22:04:12.408Z,99221.41
2023-01-13T22:06:40.792Z,99235.56
2023-01-13T22:09:09.322Z,99226.75
2023-01-13T22:11:37.688Z,99236.44
2023-01-13T22:14:08.769Z,99230.38
2023-01-13T22:16:41.429Z,99244.41
2023-01-13T22:19:10.982Z,99237.38
2023-01-13T22:21:39.956Z,99243.63
2023-01-13T22:24:08.768Z,99241.84
2023-01-13T22:26:37.265Z,99239.19
2023-01-13T22:29:07.006Z,99255.88
2023-01-13T22:31:35.436Z,99259.34
2023-01-13T22:34:03.862Z,99261.13
2023-01-13T22:36:32.221Z,99268.13
2023-01-13T22:39:01.279Z,99248.00
2023-01-13T22:41:29.710Z,99252.34
2023-01-13T22:43:58.151Z,99257.69
2023-01-13T22:46:27.932Z,99264.59
2023-01-13T22:48:56.290Z,99262.03
2023-01-13T22:51:26.397Z,99266.41
2023-01-13T22:53:55.106Z,99272.50
2023-01-13T22:56:25.140Z,99274.22
2023-01-13T22:58:57.962Z,99275.88
2023-01-13T23:01:29.774Z,99269.84
2023-01-13T23:03:58.707Z,99264.56
2023-01-13T23:06:28.479Z,99265.44
2023-01-13T23:08:57.403Z,99254.94
2023-01-13T23:11:28.015Z,99262.81
2023-01-13T23:14:00.951Z,99272.41
2023-01-13T23:16:33.250Z,99272.50
2023-01-13T23:19:02.230Z,99257.78
2023-01-13T23:21:32.530Z,99273.59
2023-01-13T23:24:01.198Z,99281.56
2023-01-13T23:26:30.415Z,99278.09
2023-01-13T23:29:00.190Z,99278.03
2023-01-13T23:31:30.540Z,99292.91
2023-01-13T23:33:59.231Z,99302.47
2023-01-13T23:36:28.572Z,99278.03
2023-01-13T23:38:59.265Z,99282.44
2023-01-13T23:41:28.862Z,99282.47
2023-01-13T23:43:59.601Z,99271.84
2023-01-13T23:46:31.160Z,99278.03
2023-01-13T23:48:59.639Z,99271.88
2023-01-13T23:51:30.062Z,99267.63
2023-01-13T23:53:59.692Z,99265.00
2023-01-13T23:56:29.918Z,99257.28
2023-01-13T23:58:58.698Z,99246.78
